createdAt,value
2018-04-20T00:01:09.742Z,22
2018-04-20T00:11:08.953Z,21.9
2018-04-20T00:21:08.237Z,21.9
2018-04-20T00:31:07.393Z,21.9
2018-04-20T00:41:06.667Z,21.8
2018-04-20T00:51:05.836Z,21.8
2018-04-20T01:01:05.040Z,21.8
2018-04-20T01:11:04.268Z,21.8
2018-04-20T01:21:03.489Z,21.8
2018-04-20T01:31:02.976Z,21.7
2018-04-20T01:41:01.907Z,21.7
2018-04-20T01:51:01.171Z,21.6
2018-04-20T02:01:00.355Z,21.6
2018-04-20T02:10:59.571Z,21.6
2018-04-20T02:20:58.780Z,21.6
2018-04-20T02:30:58.353Z,21.6
2018-04-20T02:40:57.211Z,21.6
2018-04-20T02:50:56.764Z,21.6
2018-04-20T03:00:55.644Z,21.5
2018-04-20T03:10:54.860Z,21.6
2018-04-20T03:20:54.091Z,21.6
2018-04-20T03:30:53.354Z,21.6
2018-04-20T03:40:52.515Z,21.6
2018-04-20T03:50:51.745Z,21.6
2018-04-20T04:00:50.973Z,21.5
2018-04-20T04:10:50.243Z,21.4
2018-04-20T04:20:49.401Z,21.3
2018-04-20T04:30:48.607Z,21.2
2018-04-20T04:40:47.827Z,20.9
2018-04-20T04:50:47.046Z,20.9
2018-04-20T05:00:46.267Z,20.9
2018-04-20T05:10:45.527Z,21.1
2018-04-20T05:20:44.712Z,21.1
2018-04-20T05:30:43.910Z,21.3
2018-04-20T05:40:43.131Z,21.3
2018-04-20T05:50:42.352Z,21.4
2018-04-20T06:00:41.558Z,21.4
2018-04-20T06:10:40.772Z,21.5
2018-04-20T06:20:39.990Z,21.6
2018-04-20T06:30:39.206Z,21.6
2018-04-20T06:40:38.471Z,21.8
2018-04-20T06:50:37.657Z,21.8
2018-04-20T07:00:36.868Z,21.8
2018-04-20T07:10:36.229Z,21.9
2018-04-20T07:20:35.286Z,22.2
2018-04-20T07:30:34.525Z,22.7
2018-04-20T07:40:33.724Z,23.1
2018-04-20T07:50:32.998Z,23.3
2018-04-20T08:00:32.154Z,23.4
2018-04-20T08:10:31.416Z,23.4
2018-04-20T08:20:30.582Z,23.4
2018-04-20T08:30:29.852Z,23.3
2018-04-20T08:40:29.020Z,23.3
2018-04-20T08:50:28.230Z,23.5
2018-04-20T09:00:27.447Z,23.6
2018-04-20T09:10:26.675Z,23.8
2018-04-20T09:20:25.888Z,23.9
2018-04-20T09:30:25.161Z,23.9
2018-04-20T09:40:24.308Z,23.9
2018-04-20T09:50:23.525Z,23.9
2018-04-20T10:00:22.754Z,23.8
2018-04-20T10:10:21.972Z,23.9
2018-04-20T10:20:21.474Z,23.9
2018-04-20T10:30:20.448Z,23.9
2018-04-20T10:40:19.607Z,23.9
2018-04-20T10:50:18.829Z,23.9
2018-04-20T11:00:18.055Z,23.8
2018-04-20T11:10:17.276Z,23.7
2018-04-20T11:20:16.475Z,23.6
2018-04-20T11:30:15.691Z,23.4
2018-04-20T11:40:14.912Z,23.3
2018-04-20T11:50:14.125Z,23.3
2018-04-20T12:00:13.341Z,23.2
2018-04-20T12:10:12.580Z,23.2
2018-04-20T12:20:11.773Z,23.1
2018-04-20T12:30:10.992Z,22.9
2018-04-20T12:40:10.212Z,22.9
2018-04-20T12:50:09.469Z,22.7
2018-04-20T13:00:08.938Z,22.6
2018-04-20T13:10:08.164Z,22.5
2018-04-20T13:20:07.073Z,22.4
2018-04-20T13:30:06.339Z,22.4
2018-04-20T13:40:05.497Z,22.4
2018-04-20T13:50:04.719Z,22.3
2018-04-20T14:00:03.929Z,22.2
2018-04-20T14:10:03.144Z,22.1
2018-04-20T14:20:02.665Z,21.8
2018-04-20T14:30:01.624Z,21.6
2018-04-20T14:40:00.786Z,21.4
2018-04-20T14:49:59.999Z,21.2
2018-04-20T14:59:59.548Z,21.1
2018-04-20T15:09:58.451Z,21.1
2018-04-20T15:19:57.694Z,21.1
2018-04-20T15:29:56.853Z,21.2
2018-04-20T15:39:56.373Z,21.3
2018-04-20T15:49:55.294Z,21.3
2018-04-20T15:59:54.494Z,21.4
2018-04-20T16:09:53.721Z,21.4
2018-04-20T16:19:53.062Z,21.4
2018-04-20T16:29:52.148Z,21.4
2018-04-20T16:39:51.398Z,21.4
2018-04-20T16:49:50.570Z,21.4
2018-04-20T16:59:49.780Z,21.4
2018-04-20T17:09:48.996Z,21.4
2018-04-20T17:19:48.211Z,21.4
2018-04-20T17:29:47.441Z,21.4
2018-04-20T17:39:46.953Z,21.5
2018-04-20T17:49:46.143Z,21.6
2018-04-20T17:59:45.234Z,21.6
2018-04-20T18:09:44.298Z,21.6
2018-04-20T18:19:43.517Z,21.6
2018-04-20T18:29:42.728Z,21.6
2018-04-20T18:39:41.931Z,21.6
2018-04-20T18:49:41.484Z,21.6
2018-04-20T18:59:40.362Z,21.6
2018-04-20T19:09:39.574Z,21.7
2018-04-20T19:19:38.808Z,21.7
2018-04-20T19:29:38.068Z,21.7
2018-04-20T19:39:37.229Z,21.7
2018-04-20T19:49:36.433Z,21.7
2018-04-20T19:59:35.696Z,21.6
2018-04-20T20:09:34.879Z,21.6
2018-04-20T20:19:34.134Z,21.6
2018-04-20T20:29:33.567Z,21.6
2018-04-20T20:39:32.495Z,21.6
2018-04-20T20:49:31.710Z,21.6
2018-04-20T20:59:31.211Z,21.6
2018-04-20T21:09:30.150Z,21.6
2018-04-20T21:19:29.353Z,21.6
2018-04-20T21:29:28.638Z,21.5
2018-04-20T21:39:27.784Z,21.5
2018-04-20T21:49:27.054Z,21.4
2018-04-20T21:59:26.498Z,21.4
2018-04-20T22:09:25.432Z,21.4
2018-04-20T22:19:24.658Z,21.3
2018-04-20T22:29:24.146Z,21.3
2018-04-20T22:39:23.128Z,21.3
2018-04-20T22:49:22.305Z,21.3
2018-04-20T22:59:21.526Z,21.2
2018-04-20T23:09:20.724Z,21.2
2018-04-20T23:19:19.929Z,21.2
2018-04-20T23:29:19.144Z,21.1
2018-04-20T23:39:18.356Z,21.1
2018-04-20T23:49:17.666Z,21
2018-04-20T23:59:16.801Z,21
